YMW weather

Maniwaki Airport
Maniwaki, Quebec, Canada

Public forecast

Using degrees Celsius for public forecast. Weather courtesy of forecast.io.

METAR (pilot weather report)

Report is more than 2 hours old.

Closest report is Ottawa / Gatineau Airport, 48.5 nm (89.8 km) SSE. Retrieved 2019/09/19 01:00 UTC (2 hours ago):

CYND 190100Z 07004KT 15SM FEW250 13/09 A3030 RMK CI1 LAST STFD OBS/NEXT 191100 UTC SLP262

TAF (pilot weather forecast)

Forecast is more than 6 hours old.

Closest forecast is Ottawa / Gatineau Airport, 48.5 nm (89.8 km) SSE. Retrieved 2019/09/18 18:00 UTC (9 hours ago):

TAF CYND 181738Z 1818/1901 11007KT P6SM FEW250 BECMG 1823/1901 VRB03KT RMK NXT FCST WILL BE ISSUED AT 191245Z